sensor_id;sensor_type;location;lat;lon;timestamp;P1;P2;P0
64570;PMS5003;61095;52.454;16.948;2023-05-07T06:04:18;7.33;7.33;5.00
64570;PMS5003;61095;52.454;16.948;2023-05-07T06:09:18;5.00;5.00;2.00
64570;PMS5003;61095;52.454;16.948;2023-05-07T06:14:18;3.00;3.00;1.00
64570;PMS5003;61095;52.454;16.948;2023-05-07T06:19:20;2.00;2.00;1.00
64570;PMS5003;61095;52.454;16.948;2023-05-07T06:24:20;0.00;0.00;0.00
64570;PMS5003;61095;52.454;16.948;2023-05-07T06:29:21;1.00;1.00;0.00
64570;PMS5003;61095;52.454;16.948;2023-05-07T06:34:22;0.00;0.00;0.00
64570;PMS5003;61095;52.454;16.948;2023-05-07T06:39:23;0.33;0.33;0.00
64570;PMS5003;61095;52.454;16.948;2023-05-07T06:44:23;1.00;1.00;0.00
64570;PMS5003;61095;52.454;16.948;2023-05-07T06:49:25;0.00;0.00;0.00
64570;PMS5003;61095;52.454;16.948;2023-05-07T06:54:25;0.00;0.00;0.00
64570;PMS5003;61095;52.454;16.948;2023-05-07T06:59:26;0.00;0.00;0.00
64570;PMS5003;61095;52.454;16.948;2023-05-07T07:04:27;0.00;0.00;0.00
64570;PMS5003;61095;52.454;16.948;2023-05-07T07:09:28;0.00;0.00;0.00
64570;PMS5003;61095;52.454;16.948;2023-05-07T07:14:28;0.00;0.00;0.00
64570;PMS5003;61095;52.454;16.948;2023-05-07T07:19:30;0.00;0.00;0.00
64570;PMS5003;61095;52.454;16.948;2023-05-07T07:24:30;0.00;0.00;0.00
64570;PMS5003;61095;52.454;16.948;2023-05-07T07:29:31;0.00;0.00;0.00
64570;PMS5003;61095;52.454;16.948;2023-05-07T07:34:32;0.00;0.00;0.00
64570;PMS5003;61095;52.454;16.948;2023-05-07T07:39:33;0.00;0.00;0.00
64570;PMS5003;61095;52.454;16.948;2023-05-07T07:44:33;0.00;0.00;0.00
64570;PMS5003;61095;52.454;16.948;2023-05-07T07:49:35;0.00;0.00;0.00
64570;PMS5003;61095;52.454;16.948;2023-05-07T07:54:35;0.00;0.00;0.00
64570;PMS5003;61095;52.454;16.948;2023-05-07T07:59:36;0.00;0.00;0.00
64570;PMS5003;61095;52.454;16.948;2023-05-07T08:04:38;0.00;0.00;0.00
64570;PMS5003;61095;52.454;16.948;2023-05-07T08:09:38;0.00;0.00;0.00
64570;PMS5003;61095;52.454;16.948;2023-05-07T08:14:39;0.00;0.00;0.00
64570;PMS5003;61095;52.454;16.948;2023-05-07T08:19:40;0.00;0.00;0.00
64570;PMS5003;61095;52.454;16.948;2023-05-07T08:24:41;0.00;0.00;0.00
64570;PMS5003;61095;52.454;16.948;2023-05-07T08:29:42;0.00;0.00;0.00
64570;PMS5003;61095;52.454;16.948;2023-05-07T08:34:44;0.00;0.00;0.00
64570;PMS5003;61095;52.454;16.948;2023-05-07T08:39:44;0.00;0.00;0.00
64570;PMS5003;61095;52.454;16.948;2023-05-07T08:44:45;0.00;0.00;0.00
64570;PMS5003;61095;52.454;16.948;2023-05-07T08:49:47;0.00;0.00;0.00
64570;PMS5003;61095;52.454;16.948;2023-05-07T08:54:47;0.00;0.00;0.00
64570;PMS5003;61095;52.454;16.948;2023-05-07T08:59:48;0.00;0.00;0.00
64570;PMS5003;61095;52.454;16.948;2023-05-07T09:04:49;0.00;0.00;0.00
64570;PMS5003;61095;52.454;16.948;2023-05-07T09:09:50;0.00;0.00;0.00
64570;PMS5003;61095;52.454;16.948;2023-05-07T09:14:51;0.00;0.00;0.00
64570;PMS5003;61095;52.454;16.948;2023-05-07T09:19:53;1.00;1.00;0.00
64570;PMS5003;61095;52.454;16.948;2023-05-07T09:24:53;1.00;1.00;0.00
64570;PMS5003;61095;52.454;16.948;2023-05-07T09:29:53;1.00;1.00;0.00
64570;PMS5003;61095;52.454;16.948;2023-05-07T09:34:55;1.00;1.00;0.00
64570;PMS5003;61095;52.454;16.948;2023-05-07T09:39:55;1.00;1.00;0.00
64570;PMS5003;61095;52.454;16.948;2023-05-07T09:44:56;1.00;1.00;0.00
64570;PMS5003;61095;52.454;16.948;2023-05-07T09:49:57;1.67;0.67;0.00
64570;PMS5003;61095;52.454;16.948;2023-05-07T09:55:02;1.00;1.00;0.00
64570;PMS5003;61095;52.454;16.948;2023-05-07T10:00:03;1.67;1.67;0.00
64570;PMS5003;61095;52.454;16.948;2023-05-07T10:05:05;1.00;1.00;0.00
64570;PMS5003;61095;52.454;16.948;2023-05-07T10:10:07;0.00;0.00;0.00
64570;PMS5003;61095;52.454;16.948;2023-05-07T10:15:08;0.00;0.00;0.00
64570;PMS5003;61095;52.454;16.948;2023-05-07T10:20:11;1.00;1.00;0.00
64570;PMS5003;61095;52.454;16.948;2023-05-07T10:25:13;0.00;0.00;0.00
64570;PMS5003;61095;52.454;16.948;2023-05-07T10:30:19;0.67;0.00;0.00
64570;PMS5003;61095;52.454;16.948;2023-05-07T10:35:37;1.00;1.00;0.00
64570;PMS5003;61095;52.454;16.948;2023-05-07T10:40:40;1.33;1.00;0.00
64570;PMS5003;61095;52.454;16.948;2023-05-07T10:45:41;2.00;2.00;0.00
64570;PMS5003;61095;52.454;16.948;2023-05-07T10:50:43;1.00;1.00;0.00
64570;PMS5003;61095;52.454;16.948;2023-05-07T10:55:46;1.00;1.00;0.00
64570;PMS5003;61095;52.454;16.948;2023-05-07T11:00:48;3.00;3.00;0.00
64570;PMS5003;61095;52.454;16.948;2023-05-07T11:05:52;2.67;2.00;0.00
64570;PMS5003;61095;52.454;16.948;2023-05-07T11:11:10;1.00;0.00;0.00
64570;PMS5003;61095;52.454;16.948;2023-05-07T11:16:17;1.00;1.00;0.00
64570;PMS5003;61095;52.454;16.948;2023-05-07T11:21:32;0.00;0.00;0.00
64570;PMS5003;61095;52.454;16.948;2023-05-07T11:26:44;0.00;0.00;0.00
64570;PMS5003;61095;52.454;16.948;2023-05-07T11:31:48;0.00;0.00;0.00
64570;PMS5003;61095;52.454;16.948;2023-05-07T11:36:51;0.00;0.00;0.00
64570;PMS5003;61095;52.454;16.948;2023-05-07T11:41:52;0.00;0.00;0.00
64570;PMS5003;61095;52.454;16.948;2023-05-07T11:46:53;0.00;0.00;0.00
64570;PMS5003;61095;52.454;16.948;2023-05-07T11:51:54;0.00;0.00;0.00
64570;PMS5003;61095;52.454;16.948;2023-05-07T11:56:56;0.00;0.00;0.00
64570;PMS5003;61095;52.454;16.948;2023-05-07T12:01:57;0.00;0.00;0.00
64570;PMS5003;61095;52.454;16.948;2023-05-07T12:06:59;0.00;0.00;0.00
64570;PMS5003;61095;52.454;16.948;2023-05-07T12:12:02;0.00;0.00;0.00
64570;PMS5003;61095;52.454;16.948;2023-05-07T12:17:03;0.00;0.00;0.00
64570;PMS5003;61095;52.454;16.948;2023-05-07T12:22:06;0.00;0.00;0.00
64570;PMS5003;61095;52.454;16.948;2023-05-07T12:27:08;0.00;0.00;0.00
64570;PMS5003;61095;52.454;16.948;2023-05-07T12:32:12;0.00;0.00;0.00
64570;PMS5003;61095;52.454;16.948;2023-05-07T12:37:22;1.00;0.00;0.00
64570;PMS5003;61095;52.454;16.948;2023-05-07T12:42:23;2.00;0.00;0.00
64570;PMS5003;61095;52.454;16.948;2023-05-07T12:47:23;0.00;0.00;0.00
64570;PMS5003;61095;52.454;16.948;2023-05-07T12:52:25;0.00;0.00;0.00
64570;PMS5003;61095;52.454;16.948;2023-05-07T12:57:26;0.00;0.00;0.00
64570;PMS5003;61095;52.454;16.948;2023-05-07T13:02:31;0.00;0.00;0.00
64570;PMS5003;61095;52.454;16.948;2023-05-07T13:07:34;0.00;0.00;0.00
64570;PMS5003;61095;52.454;16.948;2023-05-07T13:12:34;0.00;0.00;0.00
64570;PMS5003;61095;52.454;16.948;2023-05-07T13:17:34;0.00;0.00;0.00
64570;PMS5003;61095;52.454;16.948;2023-05-07T13:22:36;0.00;0.00;0.00
64570;PMS5003;61095;52.454;16.948;2023-05-07T13:27:37;0.00;0.00;0.00
64570;PMS5003;61095;52.454;16.948;2023-05-07T13:32:37;0.00;0.00;0.00
64570;PMS5003;61095;52.454;16.948;2023-05-07T13:37:39;0.00;0.00;0.00
64570;PMS5003;61095;52.454;16.948;2023-05-07T13:42:39;0.00;0.00;0.00
64570;PMS5003;61095;52.454;16.948;2023-05-07T13:47:39;0.00;0.00;0.00
64570;PMS5003;61095;52.454;16.948;2023-05-07T13:52:42;1.00;0.00;0.00
64570;PMS5003;61095;52.454;16.948;2023-05-07T13:57:43;3.67;2.67;0.00
64570;PMS5003;61095;52.454;16.948;2023-05-07T14:02:43;3.00;2.00;0.00
64570;PMS5003;61095;52.454;16.948;2023-05-07T14:07:45;3.00;2.00;0.00
64570;PMS5003;61095;52.454;16.948;2023-05-07T14:12:45;2.00;2.00;0.00
64570;PMS5003;61095;52.454;16.948;2023-05-07T14:17:46;1.00;1.00;0.00
64570;PMS5003;61095;52.454;16.948;2023-05-07T14:22:48;3.00;3.00;0.00
64570;PMS5003;61095;52.454;16.948;2023-05-07T14:27:48;2.00;2.00;0.00
64570;PMS5003;61095;52.454;16.948;2023-05-07T14:32:48;3.00;3.00;0.00
64570;PMS5003;61095;52.454;16.948;2023-05-07T14:37:50;1.00;1.00;0.00
64570;PMS5003;61095;52.454;16.948;2023-05-07T14:42:51;1.00;1.00;0.00
64570;PMS5003;61095;52.454;16.948;2023-05-07T14:47:51;3.33;3.33;0.00
64570;PMS5003;61095;52.454;16.948;2023-05-07T14:52:53;1.00;1.00;0.00
64570;PMS5003;61095;52.454;16.948;2023-05-07T14:57:53;2.33;2.33;0.00
64570;PMS5003;61095;52.454;16.948;2023-05-07T15:02:53;1.00;1.00;0.00
64570;PMS5003;61095;52.454;16.948;2023-05-07T15:08:02;1.00;1.00;0.00
64570;PMS5003;61095;52.454;16.948;2023-05-07T15:13:02;1.00;1.00;0.00
64570;PMS5003;61095;52.454;16.948;2023-05-07T15:18:03;1.00;1.00;0.00
64570;PMS5003;61095;52.454;16.948;2023-05-07T15:23:04;1.00;1.00;0.00
64570;PMS5003;61095;52.454;16.948;2023-05-07T15:28:06;2.00;1.00;0.00
64570;PMS5003;61095;52.454;16.948;2023-05-07T15:33:06;2.00;2.00;0.00
64570;PMS5003;61095;52.454;16.948;2023-05-07T15:38:08;2.00;2.00;0.00
64570;PMS5003;61095;52.454;16.948;2023-05-07T15:43:08;2.00;2.00;0.00
64570;PMS5003;61095;52.454;16.948;2023-05-07T15:48:10;3.00;3.00;0.00
64570;PMS5003;61095;52.454;16.948;2023-05-07T15:53:12;3.00;3.00;0.00
64570;PMS5003;61095;52.454;16.948;2023-05-07T15:58:12;2.00;2.00;0.00
64570;PMS5003;61095;52.454;16.948;2023-05-07T16:03:12;1.00;1.00;0.00
64570;PMS5003;61095;52.454;16.948;2023-05-07T16:08:14;3.00;3.00;0.00
64570;PMS5003;61095;52.454;16.948;2023-05-07T16:13:14;3.00;3.00;0.00
64570;PMS5003;61095;52.454;16.948;2023-05-07T16:18:15;4.00;4.00;0.00
64570;PMS5003;61095;52.454;16.948;2023-05-07T16:23:17;2.00;2.00;0.00
64570;PMS5003;61095;52.454;16.948;2023-05-07T16:28:17;2.00;1.33;0.00
64570;PMS5003;61095;52.454;16.948;2023-05-07T16:33:17;5.00;5.00;1.00
64570;PMS5003;61095;52.454;16.948;2023-05-07T16:38:19;6.33;5.33;2.00
64570;PMS5003;61095;52.454;16.948;2023-05-07T16:43:19;3.33;3.33;1.00
64570;PMS5003;61095;52.454;16.948;2023-05-07T16:48:20;3.00;3.00;1.00
64570;PMS5003;61095;52.454;16.948;2023-05-07T16:53:22;4.00;4.00;1.00
64570;PMS5003;61095;52.454;16.948;2023-05-07T16:58:22;4.00;4.00;0.00
64570;PMS5003;61095;52.454;16.948;2023-05-07T17:03:23;3.00;3.00;1.00
64570;PMS5003;61095;52.454;16.948;2023-05-07T17:08:25;2.00;2.00;1.00
64570;PMS5003;61095;52.454;16.948;2023-05-07T17:13:25;3.33;3.33;2.00
64570;PMS5003;61095;52.454;16.948;2023-05-07T17:18:25;5.00;4.00;0.33
64570;PMS5003;61095;52.454;16.948;2023-05-07T17:23:27;4.00;3.00;0.67
64570;PMS5003;61095;52.454;16.948;2023-05-07T17:28:28;3.00;2.67;0.00
64570;PMS5003;61095;52.454;16.948;2023-05-07T17:33:28;2.00;2.00;0.00
64570;PMS5003;61095;52.454;16.948;2023-05-07T17:38:30;4.00;2.00;0.00
64570;PMS5003;61095;52.454;16.948;2023-05-07T17:43:30;4.00;3.00;1.00
64570;PMS5003;61095;52.454;16.948;2023-05-07T17:48:31;7.00;7.00;3.00
64570;PMS5003;61095;52.454;16.948;2023-05-07T17:53:33;7.00;6.33;3.00
64570;PMS5003;61095;52.454;16.948;2023-05-07T17:58:33;5.00;4.67;3.00
64570;PMS5003;61095;52.454;16.948;2023-05-07T18:03:35;4.00;3.67;2.00
64570;PMS5003;61095;52.454;16.948;2023-05-07T18:08:36;5.00;5.00;3.00
64570;PMS5003;61095;52.454;16.948;2023-05-07T18:13:37;6.00;5.00;2.67
64570;PMS5003;61095;52.454;16.948;2023-05-07T18:18:37;6.00;5.00;2.00
64570;PMS5003;61095;52.454;16.948;2023-05-07T18:23:39;7.00;7.00;2.00
64570;PMS5003;61095;52.454;16.948;2023-05-07T18:28:39;7.00;7.00;3.00
64570;PMS5003;61095;52.454;16.948;2023-05-07T18:33:40;7.00;7.00;4.33
64570;PMS5003;61095;52.454;16.948;2023-05-07T18:38:41;6.33;6.33;4.00
64570;PMS5003;61095;52.454;16.948;2023-05-07T18:43:42;7.00;7.00;5.00
64570;PMS5003;61095;52.454;16.948;2023-05-07T18:48:42;8.00;8.00;6.33
64570;PMS5003;61095;52.454;16.948;2023-05-07T18:53:44;10.67;9.33;6.00
64570;PMS5003;61095;52.454;16.948;2023-05-07T18:58:44;11.00;9.00;5.00
64570;PMS5003;61095;52.454;16.948;2023-05-07T19:03:44;12.33;11.67;6.33
64570;PMS5003;61095;52.454;16.948;2023-05-07T19:08:46;13.00;12.33;6.00
64570;PMS5003;61095;52.454;16.948;2023-05-07T19:13:47;13.00;12.33;6.67
64570;PMS5003;61095;52.454;16.948;2023-05-07T19:18:47;16.00;15.33;8.00
64570;PMS5003;61095;52.454;16.948;2023-05-07T19:23:49;18.33;18.33;10.33
64570;PMS5003;61095;52.454;16.948;2023-05-07T19:28:49;19.00;17.33;11.33
64570;PMS5003;61095;52.454;16.948;2023-05-07T19:33:50;16.00;16.00;8.00
64570;PMS5003;61095;52.454;16.948;2023-05-07T19:38:52;15.00;14.00;6.00
64570;PMS5003;61095;52.454;16.948;2023-05-07T19:43:52;13.00;12.00;6.00
64570;PMS5003;61095;52.454;16.948;2023-05-07T19:48:52;13.00;13.00;7.00
64570;PMS5003;61095;52.454;16.948;2023-05-07T19:53:55;16.67;16.00;7.00
64570;PMS5003;61095;52.454;16.948;2023-05-07T19:58:55;16.00;16.00;6.00
64570;PMS5003;61095;52.454;16.948;2023-05-07T20:03:56;16.67;16.67;8.00
64570;PMS5003;61095;52.454;16.948;2023-05-07T20:08:57;17.00;17.00;7.00
64570;PMS5003;61095;52.454;16.948;2023-05-07T20:13:58;15.00;15.00;7.00
64570;PMS5003;61095;52.454;16.948;2023-05-07T20:18:58;16.00;15.67;7.67
64570;PMS5003;61095;52.454;16.948;2023-05-07T20:24:00;15.33;15.33;9.33
64570;PMS5003;61095;52.454;16.948;2023-05-07T20:29:00;16.00;16.00;10.00
64570;PMS5003;61095;52.454;16.948;2023-05-07T20:34:01;17.00;17.00;10.00
64570;PMS5003;61095;52.454;16.948;2023-05-07T20:39:03;16.00;16.00;8.00
64570;PMS5003;61095;52.454;16.948;2023-05-07T20:44:03;15.00;15.00;7.00
64570;PMS5003;61095;52.454;16.948;2023-05-07T20:49:04;16.00;15.00;7.00
64570;PMS5003;61095;52.454;16.948;2023-05-07T20:54:05;16.00;15.00;8.00
64570;PMS5003;61095;52.454;16.948;2023-05-07T20:59:06;17.00;14.00;7.00
64570;PMS5003;61095;52.454;16.948;2023-05-07T21:04:06;15.00;15.00;6.00
64570;PMS5003;61095;52.454;16.948;2023-05-07T21:09:08;14.00;14.00;7.00
64570;PMS5003;61095;52.454;16.948;2023-05-07T21:14:08;14.00;14.00;7.00
64570;PMS5003;61095;52.454;16.948;2023-05-07T21:19:09;14.00;13.00;6.00
64570;PMS5003;61095;52.454;16.948;2023-05-07T21:24:10;14.67;14.67;7.00
64570;PMS5003;61095;52.454;16.948;2023-05-07T21:29:11;16.33;15.67;8.00
64570;PMS5003;61095;52.454;16.948;2023-05-07T21:34:11;16.00;14.00;7.00
64570;PMS5003;61095;52.454;16.948;2023-05-07T21:39:13;16.33;14.33;7.33
64570;PMS5003;61095;52.454;16.948;2023-05-07T21:44:13;17.00;16.33;9.00
64570;PMS5003;61095;52.454;16.948;2023-05-07T21:49:14;16.33;16.33;7.00
64570;PMS5003;61095;52.454;16.948;2023-05-07T21:54:15;16.67;16.67;8.00
64570;PMS5003;61095;52.454;16.948;2023-05-07T21:59:16;19.00;15.33;9.00
